sensor_id;sensor_type;location;lat;lon;timestamp;P1;durP1;ratioP1;P2;durP2;ratioP2
46407;SDS011;32110;45.724;21.276;2022-12-18T00:01:26;70.85;;;25.90;;
46407;SDS011;32110;45.724;21.276;2022-12-18T00:03:52;66.93;;;25.67;;
46407;SDS011;32110;45.724;21.276;2022-12-18T00:06:17;69.63;;;27.15;;
46407;SDS011;32110;45.724;21.276;2022-12-18T00:08:43;71.95;;;27.52;;
46407;SDS011;32110;45.724;21.276;2022-12-18T00:11:16;74.60;;;26.20;;
46407;SDS011;32110;45.724;21.276;2022-12-18T00:13:42;71.95;;;27.85;;
46407;SDS011;32110;45.724;21.276;2022-12-18T00:16:08;77.88;;;28.67;;
46407;SDS011;32110;45.724;21.276;2022-12-18T00:18:34;72.93;;;25.95;;
46407;SDS011;32110;45.724;21.276;2022-12-18T00:21:00;74.20;;;27.10;;
46407;SDS011;32110;45.724;21.276;2022-12-18T00:23:26;67.07;;;24.95;;
46407;SDS011;32110;45.724;21.276;2022-12-18T00:25:51;65.80;;;26.13;;
46407;SDS011;32110;45.724;21.276;2022-12-18T00:28:17;63.63;;;24.60;;
46407;SDS011;32110;45.724;21.276;2022-12-18T00:30:42;72.75;;;26.35;;
46407;SDS011;32110;45.724;21.276;2022-12-18T00:33:07;75.17;;;25.67;;
46407;SDS011;32110;45.724;21.276;2022-12-18T00:35:33;70.57;;;25.42;;
46407;SDS011;32110;45.724;21.276;2022-12-18T00:37:58;69.65;;;24.17;;
46407;SDS011;32110;45.724;21.276;2022-12-18T00:40:23;67.43;;;25.07;;
46407;SDS011;32110;45.724;21.276;2022-12-18T00:42:48;73.57;;;24.47;;
46407;SDS011;32110;45.724;21.276;2022-12-18T00:47:48;69.33;;;26.13;;
46407;SDS011;32110;45.724;21.276;2022-12-18T00:50:13;61.43;;;23.40;;
46407;SDS011;32110;45.724;21.276;2022-12-18T00:52:40;60.53;;;22.63;;
46407;SDS011;32110;45.724;21.276;2022-12-18T00:55:05;66.65;;;23.20;;
46407;SDS011;32110;45.724;21.276;2022-12-18T00:57:30;58.28;;;22.13;;
46407;SDS011;32110;45.724;21.276;2022-12-18T00:59:56;62.63;;;23.47;;
46407;SDS011;32110;45.724;21.276;2022-12-18T01:02:21;66.37;;;24.43;;
46407;SDS011;32110;45.724;21.276;2022-12-18T01:04:46;67.68;;;24.15;;
46407;SDS011;32110;45.724;21.276;2022-12-18T01:07:11;63.10;;;24.00;;
46407;SDS011;32110;45.724;21.276;2022-12-18T01:09:37;62.70;;;24.23;;
46407;SDS011;32110;45.724;21.276;2022-12-18T01:12:02;64.03;;;23.73;;
46407;SDS011;32110;45.724;21.276;2022-12-18T01:14:27;65.10;;;22.25;;
46407;SDS011;32110;45.724;21.276;2022-12-18T01:16:52;63.67;;;24.50;;
46407;SDS011;32110;45.724;21.276;2022-12-18T01:19:18;64.57;;;24.77;;
46407;SDS011;32110;45.724;21.276;2022-12-18T01:21:43;66.37;;;24.90;;
46407;SDS011;32110;45.724;21.276;2022-12-18T01:24:10;59.37;;;23.03;;
46407;SDS011;32110;45.724;21.276;2022-12-18T01:26:36;65.57;;;23.95;;
46407;SDS011;32110;45.724;21.276;2022-12-18T01:29:01;67.03;;;22.97;;
46407;SDS011;32110;45.724;21.276;2022-12-18T01:31:28;62.42;;;23.00;;
46407;SDS011;32110;45.724;21.276;2022-12-18T01:33:53;63.08;;;23.02;;
46407;SDS011;32110;45.724;21.276;2022-12-18T01:36:20;67.17;;;23.63;;
46407;SDS011;32110;45.724;21.276;2022-12-18T01:38:45;67.97;;;24.00;;
46407;SDS011;32110;45.724;21.276;2022-12-18T01:41:11;62.10;;;22.48;;
46407;SDS011;32110;45.724;21.276;2022-12-18T01:43:40;66.72;;;23.80;;
46407;SDS011;32110;45.724;21.276;2022-12-18T01:48:31;58.20;;;22.02;;
46407;SDS011;32110;45.724;21.276;2022-12-18T01:50:56;60.60;;;22.10;;
46407;SDS011;32110;45.724;21.276;2022-12-18T01:53:22;60.53;;;22.33;;
46407;SDS011;32110;45.724;21.276;2022-12-18T01:55:49;61.42;;;22.88;;
46407;SDS011;32110;45.724;21.276;2022-12-18T01:58:15;62.17;;;23.73;;
46407;SDS011;32110;45.724;21.276;2022-12-18T02:00:40;59.10;;;21.98;;
46407;SDS011;32110;45.724;21.276;2022-12-18T02:03:06;68.55;;;23.67;;
46407;SDS011;32110;45.724;21.276;2022-12-18T02:18:41;60.15;;;22.30;;
46407;SDS011;32110;45.724;21.276;2022-12-18T02:21:09;59.78;;;22.58;;
46407;SDS011;32110;45.724;21.276;2022-12-18T02:26:28;64.63;;;22.50;;
46407;SDS011;32110;45.724;21.276;2022-12-18T02:28:56;66.10;;;23.85;;
46407;SDS011;32110;45.724;21.276;2022-12-18T02:31:25;64.22;;;23.67;;
46407;SDS011;32110;45.724;21.276;2022-12-18T02:33:52;59.10;;;21.48;;
46407;SDS011;32110;45.724;21.276;2022-12-18T02:36:22;61.65;;;22.08;;
46407;SDS011;32110;45.724;21.276;2022-12-18T02:38:49;64.25;;;23.88;;
46407;SDS011;32110;45.724;21.276;2022-12-18T02:41:15;65.68;;;22.27;;
46407;SDS011;32110;45.724;21.276;2022-12-18T02:43:45;59.10;;;21.92;;
46407;SDS011;32110;45.724;21.276;2022-12-18T02:46:23;63.55;;;23.35;;
46407;SDS011;32110;45.724;21.276;2022-12-18T02:48:49;63.73;;;24.10;;
46407;SDS011;32110;45.724;21.276;2022-12-18T02:51:24;70.78;;;24.17;;
46407;SDS011;32110;45.724;21.276;2022-12-18T02:54:01;61.90;;;22.60;;
46407;SDS011;32110;45.724;21.276;2022-12-18T02:56:35;60.35;;;22.38;;
46407;SDS011;32110;45.724;21.276;2022-12-18T02:59:04;67.15;;;23.08;;
46407;SDS011;32110;45.724;21.276;2022-12-18T03:04:39;64.90;;;22.88;;
46407;SDS011;32110;45.724;21.276;2022-12-18T03:07:14;64.93;;;23.42;;
46407;SDS011;32110;45.724;21.276;2022-12-18T03:09:41;68.30;;;24.63;;
46407;SDS011;32110;45.724;21.276;2022-12-18T03:12:09;66.85;;;23.42;;
46407;SDS011;32110;45.724;21.276;2022-12-18T03:14:52;65.72;;;24.50;;
46407;SDS011;32110;45.724;21.276;2022-12-18T03:17:19;68.63;;;24.35;;
46407;SDS011;32110;45.724;21.276;2022-12-18T03:19:45;68.00;;;23.25;;
46407;SDS011;32110;45.724;21.276;2022-12-18T03:22:11;71.60;;;26.17;;
46407;SDS011;32110;45.724;21.276;2022-12-18T03:24:37;70.03;;;24.50;;
46407;SDS011;32110;45.724;21.276;2022-12-18T03:27:05;64.82;;;24.35;;
46407;SDS011;32110;45.724;21.276;2022-12-18T03:29:33;65.55;;;24.30;;
46407;SDS011;32110;45.724;21.276;2022-12-18T03:32:05;68.90;;;24.45;;
46407;SDS011;32110;45.724;21.276;2022-12-18T03:34:33;69.93;;;24.90;;
46407;SDS011;32110;45.724;21.276;2022-12-18T03:36:59;69.30;;;24.50;;
46407;SDS011;32110;45.724;21.276;2022-12-18T03:39:27;65.47;;;22.85;;
46407;SDS011;32110;45.724;21.276;2022-12-18T03:44:26;73.57;;;23.97;;
46407;SDS011;32110;45.724;21.276;2022-12-18T03:46:58;61.45;;;22.65;;
46407;SDS011;32110;45.724;21.276;2022-12-18T03:52:01;63.58;;;23.27;;
46407;SDS011;32110;45.724;21.276;2022-12-18T03:54:28;69.30;;;24.42;;
46407;SDS011;32110;45.724;21.276;2022-12-18T03:56:55;66.40;;;23.90;;
46407;SDS011;32110;45.724;21.276;2022-12-18T03:59:22;65.43;;;24.00;;
46407;SDS011;32110;45.724;21.276;2022-12-18T04:01:48;73.47;;;26.05;;
46407;SDS011;32110;45.724;21.276;2022-12-18T04:04:14;71.68;;;24.00;;
46407;SDS011;32110;45.724;21.276;2022-12-18T04:06:41;79.70;;;26.45;;
46407;SDS011;32110;45.724;21.276;2022-12-18T04:09:08;72.68;;;25.25;;
46407;SDS011;32110;45.724;21.276;2022-12-18T04:11:34;68.10;;;25.17;;
46407;SDS011;32110;45.724;21.276;2022-12-18T04:13:59;68.37;;;24.23;;
46407;SDS011;32110;45.724;21.276;2022-12-18T04:16:25;69.28;;;25.63;;
46407;SDS011;32110;45.724;21.276;2022-12-18T04:18:50;66.25;;;24.17;;
46407;SDS011;32110;45.724;21.276;2022-12-18T04:21:16;71.70;;;24.23;;
46407;SDS011;32110;45.724;21.276;2022-12-18T04:23:41;69.53;;;25.00;;
46407;SDS011;32110;45.724;21.276;2022-12-18T04:26:06;70.70;;;25.17;;
46407;SDS011;32110;45.724;21.276;2022-12-18T04:28:31;70.78;;;25.52;;
46407;SDS011;32110;45.724;21.276;2022-12-18T04:30:57;74.47;;;24.90;;
46407;SDS011;32110;45.724;21.276;2022-12-18T04:33:22;68.20;;;25.30;;
46407;SDS011;32110;45.724;21.276;2022-12-18T04:35:47;69.43;;;25.20;;
46407;SDS011;32110;45.724;21.276;2022-12-18T04:38:12;68.93;;;25.53;;
46407;SDS011;32110;45.724;21.276;2022-12-18T04:40:38;64.15;;;23.80;;
46407;SDS011;32110;45.724;21.276;2022-12-18T04:43:03;63.83;;;24.50;;
46407;SDS011;32110;45.724;21.276;2022-12-18T04:45:29;67.63;;;25.15;;
46407;SDS011;32110;45.724;21.276;2022-12-18T04:47:56;67.75;;;24.42;;
46407;SDS011;32110;45.724;21.276;2022-12-18T04:50:21;68.85;;;23.75;;
46407;SDS011;32110;45.724;21.276;2022-12-18T04:52:47;75.75;;;25.73;;
46407;SDS011;32110;45.724;21.276;2022-12-18T04:55:12;66.32;;;24.15;;
46407;SDS011;32110;45.724;21.276;2022-12-18T04:57:37;66.03;;;24.85;;
46407;SDS011;32110;45.724;21.276;2022-12-18T05:00:03;73.67;;;24.97;;
46407;SDS011;32110;45.724;21.276;2022-12-18T05:02:28;62.55;;;22.67;;
46407;SDS011;32110;45.724;21.276;2022-12-18T05:04:53;72.87;;;25.00;;
46407;SDS011;32110;45.724;21.276;2022-12-18T05:07:19;70.53;;;25.20;;
46407;SDS011;32110;45.724;21.276;2022-12-18T05:09:44;72.10;;;25.90;;
46407;SDS011;32110;45.724;21.276;2022-12-18T05:12:09;79.07;;;28.30;;
46407;SDS011;32110;45.724;21.276;2022-12-18T05:14:34;79.22;;;27.08;;
46407;SDS011;32110;45.724;21.276;2022-12-18T05:17:00;366.30;;;76.07;;
46407;SDS011;32110;45.724;21.276;2022-12-18T05:19:25;105.22;;;33.15;;
46407;SDS011;32110;45.724;21.276;2022-12-18T05:21:50;94.73;;;31.27;;
46407;SDS011;32110;45.724;21.276;2022-12-18T05:24:15;80.07;;;27.87;;
46407;SDS011;32110;45.724;21.276;2022-12-18T05:26:41;79.25;;;27.23;;
46407;SDS011;32110;45.724;21.276;2022-12-18T05:29:06;72.67;;;25.73;;
46407;SDS011;32110;45.724;21.276;2022-12-18T05:31:31;70.47;;;25.67;;
46407;SDS011;32110;45.724;21.276;2022-12-18T05:33:57;70.25;;;24.05;;
46407;SDS011;32110;45.724;21.276;2022-12-18T05:36:22;77.00;;;26.95;;
46407;SDS011;32110;45.724;21.276;2022-12-18T05:38:48;69.03;;;26.07;;
46407;SDS011;32110;45.724;21.276;2022-12-18T05:41:13;76.38;;;26.35;;
46407;SDS011;32110;45.724;21.276;2022-12-18T05:43:39;76.93;;;26.73;;
46407;SDS011;32110;45.724;21.276;2022-12-18T05:46:08;71.85;;;27.08;;
46407;SDS011;32110;45.724;21.276;2022-12-18T05:48:34;74.65;;;27.13;;
46407;SDS011;32110;45.724;21.276;2022-12-18T05:51:06;74.27;;;27.50;;
46407;SDS011;32110;45.724;21.276;2022-12-18T05:53:32;76.97;;;26.80;;
46407;SDS011;32110;45.724;21.276;2022-12-18T05:56:02;75.43;;;27.05;;
46407;SDS011;32110;45.724;21.276;2022-12-18T05:58:27;79.40;;;26.33;;
46407;SDS011;32110;45.724;21.276;2022-12-18T06:00:52;76.80;;;27.10;;
46407;SDS011;32110;45.724;21.276;2022-12-18T06:03:18;73.67;;;27.60;;
46407;SDS011;32110;45.724;21.276;2022-12-18T06:05:44;75.47;;;27.93;;
46407;SDS011;32110;45.724;21.276;2022-12-18T06:08:09;73.18;;;27.02;;
46407;SDS011;32110;45.724;21.276;2022-12-18T06:10:35;74.50;;;27.55;;
46407;SDS011;32110;45.724;21.276;2022-12-18T06:13:00;76.95;;;28.40;;
46407;SDS011;32110;45.724;21.276;2022-12-18T06:15:26;77.63;;;26.93;;
46407;SDS011;32110;45.724;21.276;2022-12-18T06:17:51;75.50;;;26.98;;
46407;SDS011;32110;45.724;21.276;2022-12-18T06:20:16;78.00;;;25.97;;
46407;SDS011;32110;45.724;21.276;2022-12-18T06:22:41;79.95;;;27.63;;
46407;SDS011;32110;45.724;21.276;2022-12-18T06:25:07;90.37;;;30.17;;
46407;SDS011;32110;45.724;21.276;2022-12-18T06:27:32;79.38;;;27.48;;
46407;SDS011;32110;45.724;21.276;2022-12-18T06:29:58;79.18;;;27.92;;
46407;SDS011;32110;45.724;21.276;2022-12-18T06:32:23;79.80;;;27.70;;
46407;SDS011;32110;45.724;21.276;2022-12-18T06:34:49;77.50;;;27.50;;
46407;SDS011;32110;45.724;21.276;2022-12-18T06:37:14;82.18;;;27.95;;
46407;SDS011;32110;45.724;21.276;2022-12-18T06:39:39;81.15;;;29.33;;
46407;SDS011;32110;45.724;21.276;2022-12-18T06:42:05;82.97;;;27.27;;
46407;SDS011;32110;45.724;21.276;2022-12-18T06:44:30;80.65;;;28.55;;
46407;SDS011;32110;45.724;21.276;2022-12-18T06:46:55;92.80;;;31.13;;
46407;SDS011;32110;45.724;21.276;2022-12-18T06:49:20;90.97;;;33.20;;
46407;SDS011;32110;45.724;21.276;2022-12-18T06:51:46;96.25;;;33.83;;
46407;SDS011;32110;45.724;21.276;2022-12-18T06:54:11;110.47;;;38.83;;
46407;SDS011;32110;45.724;21.276;2022-12-18T06:56:36;184.30;;;68.93;;
46407;SDS011;32110;45.724;21.276;2022-12-18T06:59:02;101.23;;;38.37;;
46407;SDS011;32110;45.724;21.276;2022-12-18T07:01:27;85.43;;;31.55;;
46407;SDS011;32110;45.724;21.276;2022-12-18T07:03:53;86.63;;;29.97;;
46407;SDS011;32110;45.724;21.276;2022-12-18T07:06:19;81.20;;;30.00;;
46407;SDS011;32110;45.724;21.276;2022-12-18T07:08:46;83.38;;;29.48;;
46407;SDS011;32110;45.724;21.276;2022-12-18T07:11:11;80.38;;;28.95;;
46407;SDS011;32110;45.724;21.276;2022-12-18T07:13:37;79.75;;;28.23;;
46407;SDS011;32110;45.724;21.276;2022-12-18T07:16:03;78.88;;;27.83;;
46407;SDS011;32110;45.724;21.276;2022-12-18T07:18:28;74.72;;;27.77;;
46407;SDS011;32110;45.724;21.276;2022-12-18T07:20:53;74.07;;;27.53;;
46407;SDS011;32110;45.724;21.276;2022-12-18T07:23:19;76.75;;;26.90;;
46407;SDS011;32110;45.724;21.276;2022-12-18T07:25:44;78.40;;;28.47;;
46407;SDS011;32110;45.724;21.276;2022-12-18T07:28:09;79.30;;;27.07;;
46407;SDS011;32110;45.724;21.276;2022-12-18T07:30:36;78.55;;;28.08;;
46407;SDS011;32110;45.724;21.276;2022-12-18T07:33:01;77.07;;;27.60;;
46407;SDS011;32110;45.724;21.276;2022-12-18T07:35:27;87.53;;;29.30;;
46407;SDS011;32110;45.724;21.276;2022-12-18T07:37:52;82.20;;;29.30;;
46407;SDS011;32110;45.724;21.276;2022-12-18T07:40:17;74.68;;;28.08;;
46407;SDS011;32110;45.724;21.276;2022-12-18T07:42:42;81.80;;;29.25;;
46407;SDS011;32110;45.724;21.276;2022-12-18T07:45:08;89.57;;;29.23;;
46407;SDS011;32110;45.724;21.276;2022-12-18T07:47:34;81.45;;;28.55;;
46407;SDS011;32110;45.724;21.276;2022-12-18T07:50:01;75.43;;;29.35;;
46407;SDS011;32110;45.724;21.276;2022-12-18T07:52:27;86.53;;;29.88;;
46407;SDS011;32110;45.724;21.276;2022-12-18T07:54:55;78.00;;;27.73;;
46407;SDS011;32110;45.724;21.276;2022-12-18T07:57:20;85.65;;;29.00;;
46407;SDS011;32110;45.724;21.276;2022-12-18T07:59:46;83.57;;;28.60;;
46407;SDS011;32110;45.724;21.276;2022-12-18T08:02:13;75.63;;;28.88;;
46407;SDS011;32110;45.724;21.276;2022-12-18T08:04:49;78.03;;;28.02;;
46407;SDS011;32110;45.724;21.276;2022-12-18T08:07:14;87.70;;;29.70;;
46407;SDS011;32110;45.724;21.276;2022-12-18T08:09:40;84.80;;;30.60;;
46407;SDS011;32110;45.724;21.276;2022-12-18T08:12:08;87.38;;;30.33;;
46407;SDS011;32110;45.724;21.276;2022-12-18T08:14:34;87.57;;;29.85;;
46407;SDS011;32110;45.724;21.276;2022-12-18T08:17:06;83.40;;;30.10;;
46407;SDS011;32110;45.724;21.276;2022-12-18T08:19:31;81.78;;;30.20;;
46407;SDS011;32110;45.724;21.276;2022-12-18T08:21:58;83.57;;;29.90;;
46407;SDS011;32110;45.724;21.276;2022-12-18T08:24:25;85.30;;;30.63;;
46407;SDS011;32110;45.724;21.276;2022-12-18T08:26:50;79.07;;;31.30;;
46407;SDS011;32110;45.724;21.276;2022-12-18T08:29:16;84.45;;;29.27;;
46407;SDS011;32110;45.724;21.276;2022-12-18T08:31:42;87.00;;;30.98;;
46407;SDS011;32110;45.724;21.276;2022-12-18T08:34:10;84.28;;;31.20;;
46407;SDS011;32110;45.724;21.276;2022-12-18T08:36:39;82.55;;;30.75;;
46407;SDS011;32110;45.724;21.276;2022-12-18T08:39:05;94.93;;;32.08;;
46407;SDS011;32110;45.724;21.276;2022-12-18T08:41:30;94.07;;;32.83;;
46407;SDS011;32110;45.724;21.276;2022-12-18T08:43:55;102.88;;;34.65;;
46407;SDS011;32110;45.724;21.276;2022-12-18T08:46:40;106.68;;;36.85;;
46407;SDS011;32110;45.724;21.276;2022-12-18T08:49:06;104.10;;;37.10;;
46407;SDS011;32110;45.724;21.276;2022-12-18T08:51:32;96.35;;;32.30;;
46407;SDS011;32110;45.724;21.276;2022-12-18T08:53:57;94.88;;;31.88;;
46407;SDS011;32110;45.724;21.276;2022-12-18T08:56:23;117.70;;;40.10;;
46407;SDS011;32110;45.724;21.276;2022-12-18T08:58:51;116.90;;;40.37;;
46407;SDS011;32110;45.724;21.276;2022-12-18T09:01:16;107.25;;;38.55;;
46407;SDS011;32110;45.724;21.276;2022-12-18T09:03:41;100.57;;;37.17;;
46407;SDS011;32110;45.724;21.276;2022-12-18T09:06:06;112.53;;;37.87;;
46407;SDS011;32110;45.724;21.276;2022-12-18T09:08:32;101.13;;;35.60;;
46407;SDS011;32110;45.724;21.276;2022-12-18T09:10:57;103.27;;;37.00;;
46407;SDS011;32110;45.724;21.276;2022-12-18T09:13:23;104.03;;;35.60;;
46407;SDS011;32110;45.724;21.276;2022-12-18T09:15:50;89.57;;;33.58;;
46407;SDS011;32110;45.724;21.276;2022-12-18T09:18:16;99.43;;;35.30;;
46407;SDS011;32110;45.724;21.276;2022-12-18T09:20:42;89.47;;;32.10;;
46407;SDS011;32110;45.724;21.276;2022-12-18T09:23:07;100.03;;;33.50;;
46407;SDS011;32110;45.724;21.276;2022-12-18T09:25:33;89.13;;;32.35;;
46407;SDS011;32110;45.724;21.276;2022-12-18T09:27:59;92.57;;;32.17;;
46407;SDS011;32110;45.724;21.276;2022-12-18T09:30:25;107.22;;;43.40;;
46407;SDS011;32110;45.724;21.276;2022-12-18T09:32:50;104.03;;;41.00;;
46407;SDS011;32110;45.724;21.276;2022-12-18T09:35:16;96.67;;;34.77;;
46407;SDS011;32110;45.724;21.276;2022-12-18T09:37:41;96.23;;;32.57;;
46407;SDS011;32110;45.724;21.276;2022-12-18T09:40:12;88.85;;;33.65;;
46407;SDS011;32110;45.724;21.276;2022-12-18T09:42:37;95.25;;;34.55;;
46407;SDS011;32110;45.724;21.276;2022-12-18T09:45:03;87.43;;;33.43;;
46407;SDS011;32110;45.724;21.276;2022-12-18T09:47:30;95.05;;;32.80;;
46407;SDS011;32110;45.724;21.276;2022-12-18T09:49:58;95.32;;;34.55;;
46407;SDS011;32110;45.724;21.276;2022-12-18T09:55:03;98.10;;;35.65;;
46407;SDS011;32110;45.724;21.276;2022-12-18T09:57:30;100.85;;;35.42;;
46407;SDS011;32110;45.724;21.276;2022-12-18T10:00:11;107.90;;;36.78;;
46407;SDS011;32110;45.724;21.276;2022-12-18T10:02:40;96.13;;;34.80;;
46407;SDS011;32110;45.724;21.276;2022-12-18T10:05:06;100.10;;;34.80;;
46407;SDS011;32110;45.724;21.276;2022-12-18T10:07:39;94.00;;;34.55;;
46407;SDS011;32110;45.724;21.276;2022-12-18T10:13:34;100.38;;;37.20;;
46407;SDS011;32110;45.724;21.276;2022-12-18T10:21:09;105.00;;;35.83;;
46407;SDS011;32110;45.724;21.276;2022-12-18T10:26:19;93.88;;;34.85;;
46407;SDS011;32110;45.724;21.276;2022-12-18T10:28:45;107.38;;;35.97;;
46407;SDS011;32110;45.724;21.276;2022-12-18T10:31:17;100.18;;;34.60;;
46407;SDS011;32110;45.724;21.276;2022-12-18T10:33:43;92.45;;;33.22;;
46407;SDS011;32110;45.724;21.276;2022-12-18T10:36:08;101.78;;;35.60;;
46407;SDS011;32110;45.724;21.276;2022-12-18T10:38:33;104.15;;;36.15;;
46407;SDS011;32110;45.724;21.276;2022-12-18T10:43:28;96.50;;;34.65;;
46407;SDS011;32110;45.724;21.276;2022-12-18T10:48:33;105.13;;;35.40;;
46407;SDS011;32110;45.724;21.276;2022-12-18T10:50:59;103.13;;;35.90;;
46407;SDS011;32110;45.724;21.276;2022-12-18T10:53:26;102.20;;;35.30;;
46407;SDS011;32110;45.724;21.276;2022-12-18T10:55:52;93.10;;;31.83;;
46407;SDS011;32110;45.724;21.276;2022-12-18T11:00:43;87.10;;;32.37;;
46407;SDS011;32110;45.724;21.276;2022-12-18T11:03:58;100.00;;;33.57;;
46407;SDS011;32110;45.724;21.276;2022-12-18T11:06:11;73.20;;;26.80;;
46407;SDS011;32110;45.724;21.276;2022-12-18T11:08:36;97.13;;;33.40;;
46407;SDS011;32110;45.724;21.276;2022-12-18T11:11:02;101.05;;;34.28;;
46407;SDS011;32110;45.724;21.276;2022-12-18T11:13:29;95.43;;;34.83;;
46407;SDS011;32110;45.724;21.276;2022-12-18T11:15:55;89.03;;;33.05;;
46407;SDS011;32110;45.724;21.276;2022-12-18T11:18:32;93.72;;;31.95;;
46407;SDS011;32110;45.724;21.276;2022-12-18T11:21:05;96.28;;;33.88;;
46407;SDS011;32110;45.724;21.276;2022-12-18T11:23:32;89.30;;;30.15;;
46407;SDS011;32110;45.724;21.276;2022-12-18T11:26:02;100.18;;;33.50;;
46407;SDS011;32110;45.724;21.276;2022-12-18T11:28:29;96.68;;;31.20;;
46407;SDS011;32110;45.724;21.276;2022-12-18T11:33:46;87.07;;;33.10;;
46407;SDS011;32110;45.724;21.276;2022-12-18T11:36:12;92.15;;;31.50;;
46407;SDS011;32110;45.724;21.276;2022-12-18T11:38:41;88.78;;;30.60;;
46407;SDS011;32110;45.724;21.276;2022-12-18T11:43:41;88.90;;;32.08;;
46407;SDS011;32110;45.724;21.276;2022-12-18T11:46:19;90.68;;;30.73;;
46407;SDS011;32110;45.724;21.276;2022-12-18T11:48:49;86.78;;;31.25;;
46407;SDS011;32110;45.724;21.276;2022-12-18T11:51:37;83.43;;;29.90;;
46407;SDS011;32110;45.724;21.276;2022-12-18T11:54:09;78.85;;;28.15;;
46407;SDS011;32110;45.724;21.276;2022-12-18T11:56:39;74.70;;;27.08;;
46407;SDS011;32110;45.724;21.276;2022-12-18T12:01:51;78.30;;;26.70;;
46407;SDS011;32110;45.724;21.276;2022-12-18T12:09:23;82.15;;;30.40;;
46407;SDS011;32110;45.724;21.276;2022-12-18T12:14:53;74.80;;;27.88;;
46407;SDS011;32110;45.724;21.276;2022-12-18T12:30:35;74.75;;;27.80;;
46407;SDS011;32110;45.724;21.276;2022-12-18T12:38:15;65.63;;;24.92;;
46407;SDS011;32110;45.724;21.276;2022-12-18T12:40:45;64.85;;;24.05;;
46407;SDS011;32110;45.724;21.276;2022-12-18T12:43:20;57.45;;;23.27;;
46407;SDS011;32110;45.724;21.276;2022-12-18T12:51:09;55.97;;;22.83;;
46407;SDS011;32110;45.724;21.276;2022-12-18T12:53:36;55.83;;;20.85;;
46407;SDS011;32110;45.724;21.276;2022-12-18T12:56:03;51.45;;;20.27;;
46407;SDS011;32110;45.724;21.276;2022-12-18T12:58:41;54.75;;;21.40;;
46407;SDS011;32110;45.724;21.276;2022-12-18T13:01:13;50.38;;;19.30;;
46407;SDS011;32110;45.724;21.276;2022-12-18T13:08:57;54.30;;;21.70;;
46407;SDS011;32110;45.724;21.276;2022-12-18T13:16:37;46.55;;;19.98;;
46407;SDS011;32110;45.724;21.276;2022-12-18T13:19:02;53.67;;;20.13;;
46407;SDS011;32110;45.724;21.276;2022-12-18T13:21:29;55.20;;;21.08;;
46407;SDS011;32110;45.724;21.276;2022-12-18T13:23:55;60.58;;;23.05;;
46407;SDS011;32110;45.724;21.276;2022-12-18T13:28:50;57.45;;;22.65;;
46407;SDS011;32110;45.724;21.276;2022-12-18T13:33:53;51.22;;;20.90;;
46407;SDS011;32110;45.724;21.276;2022-12-18T13:36:34;59.40;;;23.48;;
46407;SDS011;32110;45.724;21.276;2022-12-18T13:41:47;56.28;;;22.23;;
46407;SDS011;32110;45.724;21.276;2022-12-18T13:46:51;57.60;;;22.15;;
46407;SDS011;32110;45.724;21.276;2022-12-18T13:49:23;54.92;;;22.02;;
46407;SDS011;32110;45.724;21.276;2022-12-18T13:51:50;55.70;;;21.33;;
46407;SDS011;32110;45.724;21.276;2022-12-18T13:54:21;56.80;;;23.13;;
46407;SDS011;32110;45.724;21.276;2022-12-18T13:56:49;57.17;;;22.27;;
46407;SDS011;32110;45.724;21.276;2022-12-18T13:59:15;51.43;;;19.93;;
46407;SDS011;32110;45.724;21.276;2022-12-18T14:01:42;57.13;;;22.23;;
46407;SDS011;32110;45.724;21.276;2022-12-18T14:04:11;50.80;;;19.98;;
46407;SDS011;32110;45.724;21.276;2022-12-18T14:06:36;54.65;;;22.40;;
46407;SDS011;32110;45.724;21.276;2022-12-18T14:09:02;71.55;;;28.40;;
46407;SDS011;32110;45.724;21.276;2022-12-18T14:11:27;66.13;;;25.05;;
46407;SDS011;32110;45.724;21.276;2022-12-18T14:13:53;58.42;;;22.92;;
46407;SDS011;32110;45.724;21.276;2022-12-18T14:16:18;58.73;;;23.47;;
46407;SDS011;32110;45.724;21.276;2022-12-18T14:21:15;52.38;;;20.98;;
46407;SDS011;32110;45.724;21.276;2022-12-18T14:23:41;56.10;;;20.95;;
46407;SDS011;32110;45.724;21.276;2022-12-18T14:28:44;99.22;;;35.45;;
46407;SDS011;32110;45.724;21.276;2022-12-18T14:31:20;86.70;;;32.85;;
46407;SDS011;32110;45.724;21.276;2022-12-18T14:33:45;83.40;;;32.97;;
46407;SDS011;32110;45.724;21.276;2022-12-18T14:36:14;84.75;;;32.08;;
46407;SDS011;32110;45.724;21.276;2022-12-18T14:38:41;110.07;;;39.42;;
46407;SDS011;32110;45.724;21.276;2022-12-18T14:41:12;116.40;;;42.75;;
46407;SDS011;32110;45.724;21.276;2022-12-18T14:43:40;136.80;;;47.50;;
46407;SDS011;32110;45.724;21.276;2022-12-18T14:46:06;167.00;;;54.10;;
46407;SDS011;32110;45.724;21.276;2022-12-18T14:48:50;179.23;;;57.05;;
46407;SDS011;32110;45.724;21.276;2022-12-18T14:51:20;113.05;;;40.45;;
46407;SDS011;32110;45.724;21.276;2022-12-18T14:54:06;81.22;;;29.27;;
46407;SDS011;32110;45.724;21.276;2022-12-18T14:56:35;61.70;;;24.95;;
46407;SDS011;32110;45.724;21.276;2022-12-18T14:59:01;66.57;;;24.85;;
46407;SDS011;32110;45.724;21.276;2022-12-18T15:03:54;134.48;;;42.60;;
46407;SDS011;32110;45.724;21.276;2022-12-18T15:08:57;109.25;;;40.38;;
46407;SDS011;32110;45.724;21.276;2022-12-18T15:11:27;129.10;;;42.83;;
46407;SDS011;32110;45.724;21.276;2022-12-18T15:13:53;96.43;;;36.47;;
46407;SDS011;32110;45.724;21.276;2022-12-18T15:16:18;135.97;;;44.13;;
46407;SDS011;32110;45.724;21.276;2022-12-18T15:18:43;126.68;;;41.22;;
46407;SDS011;32110;45.724;21.276;2022-12-18T15:21:11;184.88;;;54.97;;
46407;SDS011;32110;45.724;21.276;2022-12-18T15:23:52;153.57;;;50.55;;
46407;SDS011;32110;45.724;21.276;2022-12-18T15:26:18;123.07;;;42.30;;
46407;SDS011;32110;45.724;21.276;2022-12-18T15:28:51;148.48;;;45.30;;
46407;SDS011;32110;45.724;21.276;2022-12-18T15:33:43;124.23;;;44.63;;
46407;SDS011;32110;45.724;21.276;2022-12-18T15:36:12;138.73;;;46.90;;
46407;SDS011;32110;45.724;21.276;2022-12-18T15:38:38;171.43;;;54.63;;
46407;SDS011;32110;45.724;21.276;2022-12-18T15:41:03;165.82;;;52.58;;
46407;SDS011;32110;45.724;21.276;2022-12-18T15:43:28;102.63;;;37.95;;
46407;SDS011;32110;45.724;21.276;2022-12-18T15:48:25;96.27;;;35.13;;
46407;SDS011;32110;45.724;21.276;2022-12-18T15:50:51;107.70;;;40.00;;
46407;SDS011;32110;45.724;21.276;2022-12-18T15:53:17;111.68;;;41.53;;
46407;SDS011;32110;45.724;21.276;2022-12-18T15:55:42;93.32;;;35.63;;
46407;SDS011;32110;45.724;21.276;2022-12-18T15:58:26;93.45;;;33.97;;
46407;SDS011;32110;45.724;21.276;2022-12-18T16:00:52;106.72;;;38.58;;
46407;SDS011;32110;45.724;21.276;2022-12-18T16:03:17;100.18;;;35.80;;
46407;SDS011;32110;45.724;21.276;2022-12-18T16:05:43;103.87;;;36.87;;
46407;SDS011;32110;45.724;21.276;2022-12-18T16:08:08;99.77;;;35.33;;
46407;SDS011;32110;45.724;21.276;2022-12-18T16:10:33;104.43;;;36.33;;
46407;SDS011;32110;45.724;21.276;2022-12-18T16:12:59;100.20;;;38.03;;